Time;durP1;ratioP1;P1;durP2;ratioP2;P2;SDS_P1;SDS_P2;PMS_P1;PMS_P2;Temp;Humidity;BMP_temperature;BMP_pressure;BME280_temperature;BME280_humidity;BME280_pressure;Samples;Min_cycle;Max_cycle;Signal;HPM_P1;HPM_P2
2022/03/10 00:02:15;;;;;;;16.20;13.70;;;8.00;52.70;;;;;;5031138;28;21002;-67
2022/03/10 00:04:41;;;;;;;16.87;13.47;;;8.00;52.60;;;;;;5032615;28;20258;-68
2022/03/10 00:07:07;;;;;;;18.73;13.40;;;8.00;52.80;;;;;;5030500;28;20197;-68
2022/03/10 00:09:33;;;;;;;16.53;12.30;;;8.10;53.10;;;;;;5032650;28;20225;-68
2022/03/10 00:12:00;;;;;;;15.60;13.10;;;8.00;53.30;;;;;;5032353;28;20417;-67
2022/03/10 00:14:25;;;;;;;16.03;13.20;;;7.90;53.90;;;;;;5029479;28;20437;-68
2022/03/10 00:16:52;;;;;;;16.03;12.57;;;7.90;54.10;;;;;;5014596;28;20419;-68
2022/03/10 00:19:18;;;;;;;14.80;13.00;;;7.70;54.00;;;;;;5031634;28;20774;-68
2022/03/10 00:21:44;;;;;;;17.13;12.80;;;7.60;54.20;;;;;;5003250;28;20866;-68
2022/03/10 00:24:10;;;;;;;15.97;11.73;;;7.50;54.50;;;;;;5013256;28;20903;-67
2022/03/10 00:26:37;;;;;;;18.70;15.20;;;7.40;54.70;;;;;;5029874;28;20423;-67
2022/03/10 00:29:03;;;;;;;19.43;13.23;;;7.40;54.80;;;;;;5025574;28;20736;-81
2022/03/10 00:31:29;;;;;;;19.33;13.03;;;7.30;55.00;;;;;;5014482;28;20425;-68
2022/03/10 00:33:55;;;;;;;16.60;12.60;;;7.20;54.70;;;;;;5020272;28;20391;-68
2022/03/10 00:36:20;;;;;;;18.30;12.53;;;7.20;54.70;;;;;;5021209;28;20234;-68
2022/03/10 00:38:46;;;;;;;18.00;12.20;;;7.00;55.20;;;;;;5019225;28;20594;-68
2022/03/10 00:41:12;;;;;;;18.67;14.53;;;7.00;55.40;;;;;;5019082;28;20268;-68
2022/03/10 00:43:37;;;;;;;19.27;12.60;;;7.00;55.50;;;;;;5019699;28;20197;-68
2022/03/10 00:46:03;;;;;;;17.87;12.33;;;7.00;55.60;;;;;;5020642;28;20239;-79
2022/03/10 00:48:29;;;;;;;16.93;12.17;;;7.10;55.90;;;;;;5018886;28;20185;-67
2022/03/10 00:50:55;;;;;;;15.70;12.20;;;7.10;56.00;;;;;;4987937;28;20192;-68
2022/03/10 00:53:21;;;;;;;16.53;13.83;;;7.00;55.80;;;;;;5018666;28;20187;-68
2022/03/10 00:55:46;;;;;;;16.20;13.37;;;6.70;56.30;;;;;;5020105;28;20191;-68
2022/03/10 00:58:12;;;;;;;18.73;13.73;;;6.60;56.70;;;;;;5003112;28;20755;-68
2022/03/10 01:00:38;;;;;;;23.17;14.47;;;6.50;57.20;;;;;;5019662;28;20467;-68
2022/03/10 01:03:05;;;;;;;25.97;15.70;;;6.40;57.60;;;;;;5023288;28;20191;-79
2022/03/10 01:05:32;;;;;;;20.27;14.53;;;6.20;57.80;;;;;;5005970;28;20426;-68
2022/03/10 01:07:58;;;;;;;18.35;14.60;;;6.00;58.40;;;;;;5023653;28;20406;-68
2022/03/10 01:10:24;;;;;;;20.37;14.13;;;6.10;58.80;;;;;;5017273;28;20639;-67
2022/03/10 01:12:51;;;;;;;21.30;14.20;;;6.20;58.70;;;;;;5005143;28;20418;-68
2022/03/10 01:15:25;;;;;;;18.83;13.40;;;6.40;58.50;;;;;;5006783;28;20180;-68
2022/03/10 01:17:51;;;;;;;22.00;14.07;;;6.50;58.30;;;;;;5025184;28;20378;-68
2022/03/10 01:20:19;;;;;;;24.03;13.90;;;6.60;58.10;;;;;;5019712;28;20426;-67
2022/03/10 01:22:45;;;;;;;20.83;14.37;;;6.70;58.00;;;;;;5024400;28;20404;-69
2022/03/10 01:25:11;;;;;;;18.23;14.07;;;6.70;58.00;;;;;;5024335;28;20486;-68
2022/03/10 01:27:37;;;;;;;18.73;13.83;;;6.80;57.90;;;;;;5023374;28;20875;-68
2022/03/10 01:30:04;;;;;;;19.10;14.30;;;6.80;57.80;;;;;;5023799;28;20502;-76
2022/03/10 01:32:30;;;;;;;18.00;14.10;;;6.80;57.60;;;;;;5024482;28;20172;-68
2022/03/10 01:34:56;;;;;;;22.90;14.97;;;6.80;57.50;;;;;;5023533;28;20387;-68
2022/03/10 01:37:21;;;;;;;17.33;12.50;;;6.90;57.70;;;;;;5023935;28;20188;-68
2022/03/10 01:39:47;;;;;;;21.60;13.60;;;6.80;58.20;;;;;;5022920;28;20731;-68
2022/03/10 01:42:13;;;;;;;18.87;13.97;;;6.70;57.60;;;;;;5024902;28;20212;-68
2022/03/10 01:44:40;;;;;;;17.13;12.60;;;6.80;57.80;;;;;;5025565;28;20431;-68
2022/03/10 01:47:06;;;;;;;18.63;14.23;;;6.70;57.70;;;;;;5021727;28;20654;-78
2022/03/10 01:49:35;;;;;;;17.08;12.95;;;6.40;58.20;;;;;;5008328;28;20429;-68
2022/03/10 01:52:02;;;;;;;17.40;12.67;;;6.10;59.00;;;;;;5027105;28;20270;-68
2022/03/10 01:54:27;;;;;;;17.92;12.98;;;6.00;59.40;;;;;;5023953;28;20411;-68
2022/03/10 01:56:53;;;;;;;18.70;14.00;;;6.20;59.90;;;;;;5025178;28;20190;-68
2022/03/10 01:59:20;;;;;;;17.77;13.63;;;6.30;59.60;;;;;;5022743;28;20175;-68
2022/03/10 02:01:46;;;;;;;16.43;13.13;;;6.30;59.20;;;;;;5028260;28;20202;-67
2022/03/10 02:04:13;;;;;;;15.77;12.83;;;6.30;59.00;;;;;;5033639;28;20415;-68
2022/03/10 02:06:39;;;;;;;18.40;13.83;;;6.40;58.80;;;;;;5033798;28;20414;-68
2022/03/10 02:11:51;;;;;;;16.10;13.37;;;6.30;58.80;;;;;;5033881;28;20417;-68
2022/03/10 02:17:20;;;;;;;19.47;13.53;;;6.20;59.20;;;;;;5034102;28;20390;-68
2022/03/10 02:19:52;;;;;;;18.60;14.05;;;6.20;59.00;;;;;;5003002;28;20493;-68
2022/03/10 02:22:19;;;;;;;22.00;13.90;;;6.30;59.10;;;;;;5013610;28;20588;-67
2022/03/10 02:24:46;;;;;;;17.77;13.43;;;6.40;58.90;;;;;;5028253;28;20479;-68
2022/03/10 02:27:13;;;;;;;18.13;13.93;;;6.40;58.90;;;;;;5021307;28;20400;-68
2022/03/10 02:29:40;;;;;;;18.00;14.30;;;6.40;58.80;;;;;;4992331;28;20430;-68
2022/03/10 02:32:06;;;;;;;17.30;13.60;;;6.40;58.60;;;;;;5030406;28;20405;-79
2022/03/10 02:34:32;;;;;;;20.23;13.50;;;6.40;58.70;;;;;;5028679;28;20458;-68
2022/03/10 02:36:58;;;;;;;17.70;13.30;;;6.20;58.90;;;;;;5027898;28;20419;-68
2022/03/10 02:39:23;;;;;;;17.43;13.93;;;6.20;59.30;;;;;;5016231;28;20185;-68
2022/03/10 02:41:49;;;;;;;19.20;13.87;;;6.20;59.40;;;;;;5034435;28;20298;-68
2022/03/10 02:44:15;;;;;;;19.57;14.13;;;6.30;59.50;;;;;;5016854;28;20195;-68
2022/03/10 02:46:40;;;;;;;18.50;14.60;;;6.20;59.60;;;;;;5034870;28;20250;-68
2022/03/10 02:49:06;;;;;;;17.40;13.50;;;6.20;59.70;;;;;;5033075;28;20234;-79
2022/03/10 02:51:32;;;;;;;19.23;14.17;;;6.20;59.80;;;;;;5033306;28;20612;-68
2022/03/10 02:53:58;;;;;;;20.83;14.07;;;6.20;59.80;;;;;;5017697;28;20181;-68
2022/03/10 02:56:23;;;;;;;23.00;14.27;;;6.30;59.80;;;;;;5033935;28;20176;-68
2022/03/10 02:58:49;;;;;;;17.33;13.43;;;6.20;59.60;;;;;;5018764;28;20179;-68
2022/03/10 03:01:15;;;;;;;18.23;14.37;;;6.20;59.60;;;;;;4996416;28;20286;-68
2022/03/10 03:03:40;;;;;;;19.73;13.90;;;6.10;59.70;;;;;;4983358;28;20180;-68
2022/03/10 03:06:06;;;;;;;19.23;14.70;;;6.10;59.80;;;;;;5034533;28;20221;-75
2022/03/10 03:08:32;;;;;;;15.27;12.47;;;6.10;59.70;;;;;;5028161;28;20254;-68
2022/03/10 03:10:58;;;;;;;16.42;13.35;;;6.00;59.70;;;;;;5016493;28;20186;-68
2022/03/10 03:13:23;;;;;;;18.90;13.43;;;6.00;59.80;;;;;;5015795;28;20190;-68
2022/03/10 03:15:49;;;;;;;18.27;13.30;;;6.10;60.20;;;;;;5033933;28;20178;-68
2022/03/10 03:18:15;;;;;;;19.07;13.40;;;6.00;60.20;;;;;;5015360;28;20193;-68
2022/03/10 03:20:41;;;;;;;17.63;12.88;;;6.00;60.20;;;;;;5033206;28;20207;-68
2022/03/10 03:23:07;;;;;;;19.27;15.48;;;5.90;60.10;;;;;;5032511;28;20187;-67
2022/03/10 03:25:33;;;;;;;19.67;12.93;;;5.80;60.10;;;;;;5031920;28;20210;-73
2022/03/10 03:27:58;;;;;;;17.10;13.40;;;6.00;60.40;;;;;;5033311;28;20179;-68
2022/03/10 03:30:24;;;;;;;18.23;12.53;;;6.00;60.50;;;;;;5032924;28;20588;-69
2022/03/10 03:32:50;;;;;;;18.87;13.80;;;6.00;60.60;;;;;;4996157;28;20238;-67
2022/03/10 03:35:16;;;;;;;19.60;13.63;;;5.90;60.70;;;;;;5013336;28;20389;-68
2022/03/10 03:37:41;;;;;;;16.97;14.03;;;5.50;61.00;;;;;;5029214;28;20233;-68
2022/03/10 03:40:08;;;;;;;16.07;13.17;;;5.80;61.40;;;;;;5033218;28;20183;-67
2022/03/10 03:42:34;;;;;;;15.93;12.68;;;5.80;61.60;;;;;;5015204;28;20240;-68
2022/03/10 03:45:01;;;;;;;18.02;13.50;;;5.80;61.80;;;;;;5032885;28;20642;-67
2022/03/10 03:47:26;;;;;;;20.40;13.32;;;5.70;62.00;;;;;;5014988;28;20178;-67
2022/03/10 03:49:52;;;;;;;19.23;14.90;;;5.70;62.20;;;;;;5032535;28;20240;-77
2022/03/10 03:52:18;;;;;;;19.73;14.17;;;5.70;62.50;;;;;;5032101;28;20223;-68
2022/03/10 03:54:43;;;;;;;20.93;14.17;;;5.70;62.80;;;;;;5032916;28;20171;-67
2022/03/10 03:57:09;;;;;;;19.40;13.60;;;5.70;63.10;;;;;;5033053;28;20642;-86
2022/03/10 03:59:35;;;;;;;18.13;13.33;;;5.60;63.00;;;;;;5032343;28;20273;-67
2022/03/10 04:02:01;;;;;;;18.27;13.23;;;5.70;63.70;;;;;;5032770;28;20209;-67
2022/03/10 04:04:26;;;;;;;16.80;12.67;;;5.50;63.70;;;;;;5024719;28;20550;-68
2022/03/10 04:06:52;;;;;;;18.00;14.10;;;5.50;63.70;;;;;;5015006;28;20202;-68
2022/03/10 04:09:18;;;;;;;19.07;14.70;;;5.50;63.90;;;;;;5013529;28;20333;-68
2022/03/10 04:11:44;;;;;;;16.20;13.30;;;5.10;64.00;;;;;;5032545;28;20191;-68
2022/03/10 04:14:11;;;;;;;18.60;14.27;;;5.50;64.90;;;;;;5032214;28;20189;-68
2022/03/10 04:16:38;;;;;;;16.15;13.35;;;5.30;65.00;;;;;;5031653;28;20461;-68
2022/03/10 04:19:05;;;;;;;20.00;13.88;;;5.00;64.60;;;;;;5032131;28;20175;-68
2022/03/10 04:21:31;;;;;;;18.75;13.77;;;5.30;65.40;;;;;;5030757;28;20214;-67
2022/03/10 04:23:56;;;;;;;18.85;14.05;;;5.30;65.90;;;;;;5031664;28;20187;-67
2022/03/10 04:26:23;;;;;;;21.43;14.53;;;5.30;66.20;;;;;;5030964;28;20182;-68
2022/03/10 04:28:48;;;;;;;19.77;14.75;;;5.20;66.50;;;;;;5031747;28;20266;-73
2022/03/10 04:31:14;;;;;;;18.93;13.30;;;5.20;66.50;;;;;;5029988;28;20269;-82
2022/03/10 04:33:40;;;;;;;20.20;14.33;;;5.20;66.60;;;;;;5032017;28;20463;-68
2022/03/10 04:36:07;;;;;;;18.50;13.50;;;5.10;66.70;;;;;;5014440;28;20423;-67
2022/03/10 04:38:32;;;;;;;22.60;15.23;;;4.80;66.50;;;;;;5033986;28;20412;-68
2022/03/10 04:40:58;;;;;;;19.43;14.03;;;5.20;66.90;;;;;;5036184;28;20232;-67
2022/03/10 04:43:24;;;;;;;17.83;13.77;;;5.20;67.80;;;;;;5028692;28;20451;-68
2022/03/10 04:45:50;;;;;;;19.17;13.53;;;5.20;67.30;;;;;;5029915;28;20594;-68
2022/03/10 04:48:15;;;;;;;17.37;13.40;;;5.20;67.40;;;;;;5027621;28;20183;-83
2022/03/10 04:50:41;;;;;;;16.50;13.93;;;5.20;67.30;;;;;;5032599;28;20240;-68
2022/03/10 04:53:07;;;;;;;17.70;13.80;;;4.80;66.80;;;;;;5016737;28;20269;-67
2022/03/10 04:55:33;;;;;;;17.60;14.13;;;5.10;66.90;;;;;;5035271;28;20166;-67
2022/03/10 04:57:59;;;;;;;18.33;14.35;;;4.80;68.30;;;;;;5002974;28;20495;-68
2022/03/10 05:00:24;;;;;;;19.00;13.17;;;4.70;68.40;;;;;;5014031;28;20182;-68
2022/03/10 05:02:50;;;;;;;21.33;14.07;;;4.80;69.10;;;;;;5035542;28;20273;-67
2022/03/10 05:05:18;;;;;;;18.23;13.47;;;4.90;69.40;;;;;;5035318;28;20282;-83
2022/03/10 05:07:44;;;;;;;17.70;12.85;;;4.90;69.50;;;;;;5032652;28;20175;-67
2022/03/10 05:10:12;;;;;;;20.05;14.40;;;4.60;69.50;;;;;;5020483;28;20262;-68
2022/03/10 05:12:52;;;;;;;17.40;13.10;;;4.90;69.80;;;;;;5032521;28;20170;-67
2022/03/10 05:15:23;;;;;;;16.95;13.30;;;4.90;69.30;;;;;;5026157;28;20166;-84
2022/03/10 05:17:49;;;;;;;20.02;15.20;;;4.90;69.00;;;;;;5035308;28;20175;-67
2022/03/10 05:20:15;;;;;;;22.73;14.60;;;4.70;69.10;;;;;;5014294;28;20543;-81
2022/03/10 05:22:50;;;;;;;19.63;16.80;;;4.80;69.50;;;;;;5035011;28;20520;-67
2022/03/10 05:25:17;;;;;;;19.88;16.80;;;4.90;69.80;;;;;;5031830;28;20185;-84
2022/03/10 05:27:44;;;;;;;18.10;13.85;;;4.80;69.90;;;;;;5035639;28;20183;-68
2022/03/10 05:30:11;;;;;;;18.67;15.50;;;4.80;70.40;;;;;;5035280;28;20531;-68
2022/03/10 05:32:37;;;;;;;17.67;15.00;;;4.80;71.10;;;;;;5034272;28;20507;-68
2022/03/10 05:35:04;;;;;;;25.37;16.37;;;4.80;71.20;;;;;;5033915;28;20301;-68
2022/03/10 05:37:36;;;;;;;18.73;13.50;;;4.80;71.20;;;;;;5015007;28;20735;-68
2022/03/10 05:40:06;;;;;;;18.92;14.80;;;4.70;70.90;;;;;;5026840;28;20257;-68
2022/03/10 05:42:32;;;;;;;23.25;14.10;;;4.70;70.70;;;;;;5034052;28;20208;-68
2022/03/10 05:44:58;;;;;;;18.42;15.50;;;4.70;71.30;;;;;;5034887;28;20534;-68
2022/03/10 05:47:23;;;;;;;19.87;13.50;;;4.70;71.70;;;;;;5034538;28;20182;-68
2022/03/10 05:49:49;;;;;;;16.83;13.73;;;4.70;72.30;;;;;;5032741;28;20481;-67
2022/03/10 05:52:15;;;;;;;16.30;13.20;;;4.70;72.10;;;;;;5028407;28;20500;-68
2022/03/10 05:54:41;;;;;;;21.50;14.80;;;4.20;71.80;;;;;;5014810;28;20953;-68
2022/03/10 05:57:08;;;;;;;24.45;17.05;;;4.70;72.10;;;;;;5031239;28;20435;-68
2022/03/10 05:59:34;;;;;;;24.98;17.17;;;4.70;72.60;;;;;;5031930;28;20225;-68
2022/03/10 06:02:00;;;;;;;20.30;16.77;;;4.60;72.60;;;;;;5029431;28;20198;-68
2022/03/10 06:04:26;;;;;;;28.90;19.20;;;4.60;72.60;;;;;;5028729;28;20194;-68
2022/03/10 06:06:52;;;;;;;27.17;17.50;;;4.60;72.20;;;;;;5017394;28;20266;-68
2022/03/10 06:09:17;;;;;;;24.80;17.10;;;4.60;72.20;;;;;;5031684;28;20253;-68
2022/03/10 06:11:43;;;;;;;26.43;17.90;;;4.60;72.70;;;;;;5013395;28;20197;-69
2022/03/10 06:14:11;;;;;;;26.20;17.40;;;4.50;73.20;;;;;;5032561;28;20182;-68
2022/03/10 06:16:37;;;;;;;27.10;16.90;;;4.50;74.10;;;;;;5032878;28;20178;-68
2022/03/10 06:19:03;;;;;;;32.33;18.13;;;4.50;74.90;;;;;;5032023;28;20174;-68
2022/03/10 06:21:29;;;;;;;22.70;16.30;;;4.50;75.60;;;;;;5019980;28;20210;-69
2022/03/10 06:23:55;;;;;;;29.58;16.15;;;4.50;75.60;;;;;;5014470;28;20261;-69
2022/03/10 06:26:21;;;;;;;21.00;16.33;;;4.50;75.00;;;;;;5033551;28;20178;-75
2022/03/10 06:28:47;;;;;;;19.87;14.03;;;4.50;75.60;;;;;;5033057;28;20190;-68
2022/03/10 06:31:12;;;;;;;27.53;15.53;;;4.50;75.30;;;;;;5029183;28;20185;-68
2022/03/10 06:33:38;;;;;;;18.97;14.23;;;4.50;75.10;;;;;;4998925;28;20488;-69
2022/03/10 06:36:05;;;;;;;21.10;14.87;;;4.60;75.70;;;;;;5014097;28;20425;-68
2022/03/10 06:38:31;;;;;;;19.38;13.75;;;4.60;76.40;;;;;;5026494;28;20786;-69
2022/03/10 06:40:57;;;;;;;20.52;14.85;;;4.50;77.20;;;;;;5028412;28;20206;-68
2022/03/10 06:43:22;;;;;;;21.87;14.30;;;4.60;77.50;;;;;;5029730;28;20193;-76
2022/03/10 06:45:48;;;;;;;19.80;14.73;;;4.70;77.40;;;;;;5013784;28;20197;-68
2022/03/10 06:48:14;;;;;;;17.90;15.47;;;4.60;76.80;;;;;;5014020;28;20238;-68
2022/03/10 06:50:40;;;;;;;21.83;17.37;;;4.60;75.60;;;;;;5012641;28;20253;-69
2022/03/10 06:53:05;;;;;;;19.20;14.57;;;4.30;74.70;;;;;;5030359;28;20244;-68
2022/03/10 06:55:31;;;;;;;19.73;14.03;;;4.70;75.00;;;;;;5032778;28;20210;-69
2022/03/10 06:57:58;;;;;;;20.57;15.20;;;4.70;74.60;;;;;;5033117;28;20417;-69
2022/03/10 07:00:24;;;;;;;24.15;15.38;;;4.70;75.30;;;;;;5031281;28;20531;-76
2022/03/10 07:02:52;;;;;;;21.27;17.00;;;4.70;76.60;;;;;;5016995;28;20175;-68
2022/03/10 07:05:18;;;;;;;22.55;16.98;;;4.40;76.40;;;;;;5023514;28;20440;-68
2022/03/10 07:07:44;;;;;;;21.20;16.37;;;4.40;76.80;;;;;;5029894;28;20723;-69
2022/03/10 07:10:10;;;;;;;20.20;14.43;;;4.60;76.30;;;;;;5025718;28;20399;-69
2022/03/10 07:12:39;;;;;;;16.95;13.88;;;4.90;75.80;;;;;;5014388;28;20273;-69
2022/03/10 07:15:06;;;;;;;22.38;15.90;;;5.00;75.70;;;;;;5033442;28;20228;-68
2022/03/10 07:17:31;;;;;;;19.30;14.40;;;5.00;75.60;;;;;;5014740;28;20179;-68
2022/03/10 07:19:57;;;;;;;20.43;14.60;;;5.20;75.10;;;;;;5028912;28;20509;-68
2022/03/10 07:22:23;;;;;;;21.20;14.43;;;5.20;76.10;;;;;;5022526;28;20261;-74
2022/03/10 07:24:50;;;;;;;20.40;15.50;;;5.30;77.40;;;;;;5021827;28;20222;-69
2022/03/10 07:27:16;;;;;;;23.77;16.63;;;5.20;77.60;;;;;;5043487;28;20396;-69
2022/03/10 07:29:42;;;;;;;21.42;14.15;;;5.30;77.30;;;;;;5029981;28;20252;-69
2022/03/10 07:32:08;;;;;;;30.83;16.57;;;5.30;76.70;;;;;;5002807;28;20218;-69
2022/03/10 07:34:34;;;;;;;29.67;17.73;;;5.40;77.10;;;;;;5033868;28;20438;-69
2022/03/10 07:36:59;;;;;;;22.77;17.55;;;5.50;76.70;;;;;;5052840;28;20219;-68
2022/03/10 07:39:25;;;;;;;27.03;17.37;;;5.50;76.30;;;;;;5043604;28;20183;-76
2022/03/10 07:41:51;;;;;;;23.13;16.63;;;5.60;76.30;;;;;;5032369;28;20206;-68
2022/03/10 07:44:17;;;;;;;20.47;15.57;;;5.70;75.60;;;;;;5032548;28;20182;-69
2022/03/10 07:46:43;;;;;;;25.37;16.73;;;5.70;74.10;;;;;;5025209;28;20170;-69
2022/03/10 07:49:08;;;;;;;21.33;16.37;;;5.90;73.10;;;;;;5032315;28;20846;-69
2022/03/10 07:51:35;;;;;;;23.63;17.00;;;6.00;71.60;;;;;;5018453;28;20197;-69
2022/03/10 07:54:01;;;;;;;23.02;16.80;;;6.00;72.00;;;;;;5035604;28;20575;-69
2022/03/10 07:56:27;;;;;;;22.38;17.13;;;6.10;70.40;;;;;;5031574;28;20182;-76
2022/03/10 07:58:57;;;;;;;28.27;18.47;;;6.10;70.40;;;;;;5029867;28;20215;-69
2022/03/10 08:01:24;;;;;;;26.73;18.45;;;6.30;70.50;;;;;;5027187;28;20239;-69
2022/03/10 08:03:49;;;;;;;24.23;18.97;;;6.40;71.60;;;;;;5027913;28;20177;-69
2022/03/10 08:06:16;;;;;;;28.73;19.80;;;6.50;71.10;;;;;;5016567;28;20455;-69
2022/03/10 08:08:43;;;;;;;25.43;18.77;;;6.20;69.90;;;;;;5013637;28;20532;-69
2022/03/10 08:11:09;;;;;;;23.40;17.77;;;6.80;69.20;;;;;;5031521;28;20431;-69
2022/03/10 08:13:35;;;;;;;23.27;18.20;;;6.80;69.10;;;;;;5019170;28;20498;-69
2022/03/10 08:16:01;;;;;;;22.10;17.90;;;6.90;69.30;;;;;;5012507;28;20480;-69
2022/03/10 08:18:30;;;;;;;22.60;19.10;;;7.00;70.10;;;;;;5012404;28;20185;-75
2022/03/10 08:20:57;;;;;;;21.63;17.60;;;7.10;71.50;;;;;;4994685;28;20523;-72
2022/03/10 08:23:23;;;;;;;19.70;15.87;;;7.20;70.20;;;;;;5017736;28;20433;-69
2022/03/10 08:25:49;;;;;;;26.70;16.40;;;7.30;69.00;;;;;;5009038;28;20449;-70
2022/03/10 08:28:15;;;;;;;19.90;16.50;;;7.40;68.20;;;;;;5012886;28;20435;-69
2022/03/10 08:30:41;;;;;;;17.63;15.60;;;7.50;67.40;;;;;;5036745;28;20174;-69
2022/03/10 08:33:06;;;;;;;23.00;15.63;;;7.60;67.20;;;;;;5012390;28;20209;-69
2022/03/10 08:35:32;;;;;;;21.73;15.90;;;7.70;67.10;;;;;;5028873;28;20190;-76
2022/03/10 08:37:58;;;;;;;25.20;17.30;;;7.80;67.10;;;;;;5015128;28;20301;-69
2022/03/10 08:40:24;;;;;;;26.53;17.00;;;8.00;66.50;;;;;;5012660;28;20512;-69
2022/03/10 08:42:50;;;;;;;21.10;15.90;;;8.10;66.10;;;;;;5026918;28;20440;-69
2022/03/10 08:45:17;;;;;;;20.10;15.67;;;8.30;65.90;;;;;;4996112;28;20182;-69
2022/03/10 08:47:43;;;;;;;20.53;16.57;;;8.40;68.50;;;;;;5013489;28;20426;-69
2022/03/10 08:50:11;;;;;;;21.97;16.07;;;8.50;69.80;;;;;;5020746;28;20461;-68
2022/03/10 08:52:36;;;;;;;23.27;16.97;;;8.70;71.20;;;;;;4986712;28;20452;-69
2022/03/10 08:55:03;;;;;;;21.10;16.00;;;8.80;72.00;;;;;;5013233;28;20426;-69
2022/03/10 08:57:30;;;;;;;25.73;16.10;;;9.00;71.40;;;;;;5031350;28;20265;-68
2022/03/10 08:59:55;;;;;;;23.70;16.17;;;9.10;70.80;;;;;;5030658;28;20433;-67
2022/03/10 09:02:21;;;;;;;33.13;17.43;;;9.30;72.40;;;;;;5023837;28;20466;-66
2022/03/10 09:04:47;;;;;;;19.50;16.33;;;9.40;72.30;;;;;;5021543;28;20538;-69
2022/03/10 09:07:12;;;;;;;23.77;19.00;;;9.60;71.50;;;;;;5022880;28;20211;-68
2022/03/10 09:09:38;;;;;;;20.50;16.60;;;9.70;69.10;;;;;;5020493;28;20198;-68
2022/03/10 09:12:04;;;;;;;21.60;15.60;;;9.90;67.80;;;;;;5020799;28;20283;-68
2022/03/10 09:14:30;;;;;;;21.63;16.70;;;10.00;68.00;;;;;;5027676;28;20208;-68
2022/03/10 09:16:57;;;;;;;21.70;14.77;;;10.20;65.20;;;;;;5030477;28;20457;-69
2022/03/10 09:19:23;;;;;;;20.13;16.40;;;10.50;65.30;;;;;;5026493;28;20432;-68
2022/03/10 09:21:49;;;;;;;18.60;14.67;;;10.70;65.10;;;;;;5020285;28;20454;-69
2022/03/10 09:24:15;;;;;;;19.60;15.33;;;10.90;61.10;;;;;;5022193;28;20424;-72
2022/03/10 09:26:41;;;;;;;18.57;14.63;;;11.10;56.20;;;;;;5027627;28;20421;-68
2022/03/10 09:29:06;;;;;;;19.90;14.33;;;11.30;55.50;;;;;;5031728;28;20442;-69
2022/03/10 09:31:33;;;;;;;19.10;14.30;;;11.60;55.60;;;;;;5027532;28;20247;-76
2022/03/10 09:33:58;;;;;;;19.00;14.57;;;11.80;55.30;;;;;;5020479;28;20183;-68
2022/03/10 09:36:27;;;;;;;17.33;12.77;;;12.00;55.00;;;;;;5034005;28;20427;-68
2022/03/10 09:38:53;;;;;;;16.17;14.17;;;12.20;55.20;;;;;;5026711;28;20175;-72
2022/03/10 09:41:19;;;;;;;17.37;13.27;;;12.60;54.10;;;;;;5022998;28;20471;-68
2022/03/10 09:43:46;;;;;;;18.47;16.43;;;12.90;53.30;;;;;;5023634;28;20438;-69
2022/03/10 09:46:12;;;;;;;17.93;14.00;;;13.20;53.20;;;;;;5026738;28;20181;-68
2022/03/10 09:48:39;;;;;;;17.60;15.17;;;13.50;50.70;;;;;;5020013;28;20435;-67
2022/03/10 09:51:06;;;;;;;18.77;13.33;;;13.80;52.70;;;;;;5006943;28;20198;-67
2022/03/10 09:53:34;;;;;;;19.83;13.30;;;14.20;50.10;;;;;;5022998;28;20516;-75
2022/03/10 09:56:02;;;;;;;16.37;14.53;;;14.40;50.20;;;;;;5019784;28;20430;-67
2022/03/10 09:58:28;;;;;;;15.63;12.47;;;14.80;48.50;;;;;;5014555;28;20405;-67
2022/03/10 10:01:00;;;;;;;18.00;15.30;;;15.10;49.50;;;;;;5020628;28;21076;-67
2022/03/10 10:03:33;;;;;;;18.63;13.10;;;15.40;48.70;;;;;;5034528;28;20423;-67
2022/03/10 10:06:00;;;;;;;17.80;14.40;;;15.70;48.40;;;;;;5034057;28;20396;-67
2022/03/10 10:08:27;;;;;;;18.30;13.60;;;16.00;46.90;;;;;;5034497;28;20498;-67
2022/03/10 10:10:56;;;;;;;20.07;14.97;;;16.40;45.30;;;;;;5033855;28;20444;-67
2022/03/10 10:13:28;;;;;;;16.97;14.27;;;16.80;45.70;;;;;;5034631;28;20425;-67
2022/03/10 10:16:00;;;;;;;16.93;14.10;;;16.80;37.50;;;;;;5030473;28;20597;-70
2022/03/10 10:18:27;;;;;;;21.70;14.20;;;16.80;37.40;;;;;;5033883;28;20452;-67
2022/03/10 10:20:54;;;;;;;18.03;15.00;;;16.90;36.50;;;;;;5033164;28;20473;-67
2022/03/10 10:23:25;;;;;;;15.60;13.43;;;16.70;36.60;;;;;;5034354;28;20468;-67
2022/03/10 10:26:03;;;;;;;15.60;14.00;;;16.90;36.70;;;;;;5033461;28;20451;-68
2022/03/10 10:28:31;;;;;;;17.07;12.80;;;17.00;34.80;;;;;;5033822;28;20463;-67
2022/03/10 10:31:12;;;;;;;16.50;12.20;;;17.00;36.30;;;;;;5023332;28;20782;-68
2022/03/10 10:33:54;;;;;;;16.77;11.97;;;17.20;34.80;;;;;;5022220;28;20409;-68
2022/03/10 10:36:24;;;;;;;14.37;12.73;;;17.00;34.20;;;;;;5022520;28;20828;-67
2022/03/10 10:39:17;;;;;;;12.90;11.50;;;16.90;34.50;;;;;;5018198;28;20497;-67
2022/03/10 10:41:48;;;;;;;13.50;11.50;;;17.10;36.70;;;;;;5019111;28;21020;-67
2022/03/10 10:44:20;;;;;;;12.37;10.33;;;17.20;34.50;;;;;;5004004;28;20472;-67
2022/03/10 10:46:51;;;;;;;13.23;11.93;;;17.50;34.50;;;;;;5019342;28;20421;-67
2022/03/10 10:49:19;;;;;;;13.37;12.07;;;17.90;34.80;;;;;;5014941;28;20547;-67
2022/03/10 10:51:47;;;;;;;13.97;11.50;;;18.00;33.80;;;;;;5026527;28;20449;-67
2022/03/10 10:54:19;;;;;;;14.60;13.10;;;18.10;32.90;;;;;;4999948;28;20430;-68
2022/03/10 10:56:47;;;;;;;14.60;10.70;;;18.10;32.90;;;;;;5014314;28;20437;-67
2022/03/10 10:59:45;;;;;;;13.50;11.77;;;18.30;35.00;;;;;;5034419;28;20754;-67
2022/03/10 11:02:18;;;;;;;12.47;10.60;;;18.60;34.20;;;;;;4989362;28;20484;-67
2022/03/10 11:04:46;;;;;;;12.47;10.63;;;18.30;32.60;;;;;;5032624;28;20432;-67
2022/03/10 11:07:13;;;;;;;11.50;10.30;;;18.20;32.80;;;;;;5033331;28;20421;-67
2022/03/10 11:09:43;;;;;;;12.60;11.13;;;18.40;34.90;;;;;;5032303;28;20417;-69
2022/03/10 11:12:13;;;;;;;12.40;11.30;;;18.70;34.10;;;;;;5033309;28;20481;-68
2022/03/10 11:14:39;;;;;;;12.53;9.43;;;18.90;33.90;;;;;;5032763;28;20417;-75
2022/03/10 11:17:06;;;;;;;11.63;10.53;;;18.80;33.30;;;;;;5033329;28;20440;-67
2022/03/10 11:19:34;;;;;;;10.00;8.80;;;18.50;33.50;;;;;;5033252;28;20425;-67
2022/03/10 11:22:25;;;;;;;11.50;10.40;;;18.90;34.40;;;;;;5032382;28;20465;-67
2022/03/10 11:24:54;;;;;;;7.97;7.23;;;19.20;33.50;;;;;;5031977;28;20431;-67
2022/03/10 11:27:32;;;;;;;12.90;9.73;;;18.90;33.30;;;;;;5032788;28;20790;-67
2022/03/10 11:30:01;;;;;;;8.87;7.97;;;19.00;34.40;;;;;;5031877;28;20908;-67
2022/03/10 11:32:29;;;;;;;9.10;8.20;;;19.30;35.10;;;;;;5032970;28;20425;-68
2022/03/10 11:34:58;;;;;;;8.60;7.80;;;19.40;32.40;;;;;;5014263;28;20496;-68
2022/03/10 11:37:44;;;;;;;9.97;9.10;;;19.60;33.40;;;;;;5032818;28;20504;-68
2022/03/10 11:40:39;;;;;;;7.57;6.87;;;19.60;33.50;;;;;;5015182;28;20436;-68
2022/03/10 11:43:05;;;;;;;8.73;8.00;;;19.30;32.60;;;;;;5025114;28;20436;-68
2022/03/10 11:45:31;;;;;;;7.53;6.83;;;19.40;33.10;;;;;;5032740;28;20502;-68
2022/03/10 11:48:28;;;;;;;7.87;7.27;;;19.70;34.90;;;;;;5030407;28;20735;-68
2022/03/10 11:50:55;;;;;;;7.07;6.37;;;20.10;34.20;;;;;;5031563;28;20429;-68
2022/03/10 11:53:21;;;;;;;7.30;6.70;;;20.10;32.70;;;;;;5032669;28;20909;-68
2022/03/10 11:55:52;;;;;;;6.90;6.40;;;20.20;32.70;;;;;;5013336;28;20436;-68
2022/03/10 11:58:34;;;;;;;7.27;6.67;;;20.30;33.00;;;;;;5014601;28;20533;-68
2022/03/10 12:01:00;;;;;;;6.93;6.43;;;20.50;33.50;;;;;;5031597;28;20448;-68
2022/03/10 12:03:34;;;;;;;6.97;6.47;;;20.80;33.30;;;;;;5014643;28;20990;-68
2022/03/10 12:06:01;;;;;;;6.53;6.13;;;20.20;31.20;;;;;;5013685;28;21134;-68
2022/03/10 12:08:32;;;;;;;6.00;5.50;;;20.10;32.10;;;;;;5032341;28;20413;-68
2022/03/10 12:10:59;;;;;;;6.23;5.77;;;20.00;32.90;;;;;;5031243;28;20557;-68
2022/03/10 12:13:34;;;;;;;7.70;5.53;;;20.10;32.20;;;;;;5014540;28;20413;-68
2022/03/10 12:16:07;;;;;;;6.70;6.03;;;19.90;32.40;;;;;;5014243;28;21148;-68
2022/03/10 12:18:39;;;;;;;6.83;6.30;;;19.80;33.00;;;;;;5032452;28;20405;-68
2022/03/10 12:21:25;;;;;;;5.90;5.50;;;19.70;33.20;;;;;;5031489;28;20550;-68
2022/03/10 12:24:11;;;;;;;6.20;5.70;;;19.80;33.50;;;;;;5031080;28;20409;-68
2022/03/10 12:26:42;;;;;;;6.87;6.37;;;19.80;33.40;;;;;;5031553;28;20421;-68
2022/03/10 12:29:10;;;;;;;6.00;5.50;;;19.80;32.90;;;;;;5032121;28;20403;-68
2022/03/10 12:31:37;;;;;;;5.70;5.30;;;19.80;33.20;;;;;;5031732;28;20762;-68
2022/03/10 12:34:06;;;;;;;7.10;6.40;;;19.70;33.40;;;;;;4997020;28;20421;-68
2022/03/10 12:36:39;;;;;;;9.53;6.00;;;19.80;34.20;;;;;;5031918;28;20421;-68
2022/03/10 12:39:16;;;;;;;6.57;5.97;;;19.80;33.20;;;;;;5030811;28;20427;-68
2022/03/10 12:41:45;;;;;;;6.27;5.77;;;19.60;33.50;;;;;;5031481;28;20452;-75
2022/03/10 12:44:12;;;;;;;6.33;5.83;;;19.40;32.90;;;;;;5013988;28;20421;-67